createdAt,value
2023-07-26T00:00:14.350Z,100687.66
2023-07-26T00:02:43.784Z,100681.72
2023-07-26T00:05:11.806Z,100676.19
2023-07-26T00:07:40.000Z,100682.28
2023-07-26T00:10:08.958Z,100673.38
2023-07-26T00:12:37.059Z,100687.94
2023-07-26T00:15:05.610Z,100684.53
2023-07-26T00:17:33.737Z,100681.13
2023-07-26T00:20:04.658Z,100677.38
2023-07-26T00:22:32.617Z,100685.31
2023-07-26T00:25:01.868Z,100683.47
2023-07-26T00:27:29.860Z,100685.53
2023-07-26T00:29:58.148Z,100684.34
2023-07-26T00:32:26.157Z,100687.44
2023-07-26T00:34:54.340Z,100690.28
2023-07-26T00:37:23.859Z,100682.44
2023-07-26T00:39:51.770Z,100692.88
2023-07-26T00:42:20.733Z,100695.06
2023-07-26T00:44:48.752Z,100697.50
2023-07-26T00:47:17.103Z,100697.09
2023-07-26T00:49:45.652Z,100699.31
2023-07-26T00:52:14.390Z,100700.41
2023-07-26T00:54:43.988Z,100700.75
2023-07-26T00:57:12.061Z,100703.94
2023-07-26T00:59:40.145Z,100711.78
2023-07-26T01:02:08.221Z,100709.78
2023-07-26T01:04:36.203Z,100708.94
2023-07-26T01:07:13.672Z,100708.81
2023-07-26T01:09:48.679Z,100706.63
2023-07-26T01:12:23.605Z,100710.09
2023-07-26T01:14:56.272Z,100720.97
2023-07-26T01:17:24.304Z,100713.28
2023-07-26T01:19:52.309Z,100717.28
2023-07-26T01:22:21.823Z,100724.50
2023-07-26T01:24:49.886Z,100716.09
2023-07-26T01:27:18.168Z,100711.22
2023-07-26T01:29:46.259Z,100715.63
2023-07-26T01:32:16.772Z,100706.69
2023-07-26T01:34:45.156Z,100715.97
2023-07-26T01:37:13.907Z,100713.09
2023-07-26T01:39:44.102Z,100709.19
2023-07-26T01:42:12.541Z,100718.81
2023-07-26T01:44:40.926Z,100714.31
2023-07-26T01:47:09.200Z,100725.91
2023-07-26T01:49:37.396Z,100719.78
2023-07-26T01:52:06.409Z,100722.34
2023-07-26T01:54:34.808Z,100720.50
2023-07-26T01:57:04.119Z,100718.91
2023-07-26T01:59:32.317Z,100719.50
2023-07-26T02:02:00.292Z,100713.28
2023-07-26T02:04:28.381Z,100719.50
2023-07-26T02:06:56.389Z,100722.34
2023-07-26T02:09:24.379Z,100720.84
2023-07-26T02:11:52.358Z,100721.31
2023-07-26T02:14:22.270Z,100713.66
2023-07-26T02:16:50.439Z,100718.91
2023-07-26T02:19:18.643Z,100718.56
2023-07-26T02:21:46.779Z,100722.22
2023-07-26T02:24:14.925Z,100721.84
2023-07-26T02:26:42.954Z,100717.09
2023-07-26T02:29:11.258Z,100719.19
2023-07-26T02:31:40.670Z,100725.28
2023-07-26T02:34:08.713Z,100723.31
2023-07-26T02:36:36.728Z,100722.50
2023-07-26T02:39:05.260Z,100723.84
2023-07-26T02:41:33.865Z,100723.59
2023-07-26T02:44:02.351Z,100714.44
2023-07-26T02:46:31.046Z,100709.56
2023-07-26T02:49:00.492Z,100714.69
2023-07-26T02:51:30.443Z,100718.84
2023-07-26T02:53:58.896Z,100717.50
2023-07-26T02:56:26.814Z,100713.19
2023-07-26T02:58:54.788Z,100717.94
2023-07-26T03:01:22.838Z,100715.78
2023-07-26T03:03:50.893Z,100723.59
2023-07-26T03:06:20.972Z,100723.81
2023-07-26T03:08:49.326Z,100724.06
2023-07-26T03:11:17.394Z,100722.09
2023-07-26T03:13:45.400Z,100723.31
2023-07-26T03:16:13.488Z,100725.41
2023-07-26T03:18:41.584Z,100728.47
2023-07-26T03:21:09.636Z,100721.16
2023-07-26T03:23:40.183Z,100732.50
2023-07-26T03:26:08.372Z,100725.41
2023-07-26T03:28:36.312Z,100731.16
2023-07-26T03:31:04.398Z,100734.06
2023-07-26T03:33:33.726Z,100732.84
2023-07-26T03:36:02.138Z,100735.06
2023-07-26T03:38:31.209Z,100730.03
2023-07-26T03:41:00.666Z,100744.78
2023-07-26T03:43:29.273Z,100737.59
2023-07-26T03:45:57.396Z,100754.31
2023-07-26T03:48:25.710Z,100756.03
2023-07-26T03:50:54.060Z,100754.31
2023-07-26T03:53:22.310Z,100751.50
2023-07-26T03:55:50.571Z,100746.41
2023-07-26T03:58:20.442Z,100747.88
2023-07-26T04:00:48.821Z,100754.94
2023-07-26T04:03:17.209Z,100758.22
2023-07-26T04:05:45.192Z,100765.06
2023-07-26T04:08:13.322Z,100758.00
2023-07-26T04:10:41.511Z,100759.97
2023-07-26T04:13:09.527Z,100770.97
2023-07-26T04:15:40.374Z,100771.06
2023-07-26T04:18:08.724Z,100771.81
2023-07-26T04:20:36.745Z,100767.63
2023-07-26T04:23:04.718Z,100765.06
2023-07-26T04:25:32.662Z,100770.69
2023-07-26T04:28:00.599Z,100761.91
2023-07-26T04:30:29.540Z,100765.56
2023-07-26T04:32:58.907Z,100768.13
2023-07-26T04:35:26.861Z,100767.75
2023-07-26T04:37:54.785Z,100771.56
2023-07-26T04:40:22.667Z,100774.00
2023-07-26T04:42:50.551Z,100774.22
2023-07-26T04:45:18.588Z,100773.63
2023-07-26T04:47:48.983Z,100773.25
2023-07-26T04:50:18.557Z,100784.44
2023-07-26T04:52:46.480Z,100783.84
2023-07-26T04:55:14.415Z,100776.75
2023-07-26T04:57:42.451Z,100781.09
2023-07-26T05:00:16.660Z,100782.78
2023-07-26T05:02:44.661Z,100784.72
2023-07-26T05:05:18.321Z,100785.16
2023-07-26T05:07:46.793Z,100795.19
2023-07-26T05:10:14.989Z,100791.53
2023-07-26T05:12:43.081Z,100785.81
2023-07-26T05:15:11.849Z,100783.72
2023-07-26T05:17:39.832Z,100790.94
2023-07-26T05:20:09.030Z,100789.75
2023-07-26T05:22:38.996Z,100783.47
2023-07-26T05:25:12.846Z,100790.16
2023-07-26T05:27:42.705Z,100789.53
2023-07-26T05:30:11.255Z,100795.28
2023-07-26T05:32:39.134Z,100801.25
2023-07-26T05:35:14.805Z,100807.69
2023-07-26T05:37:44.083Z,100804.59
2023-07-26T05:40:12.820Z,100801.72
2023-07-26T05:42:40.729Z,100811.03
2023-07-26T05:45:09.827Z,100814.09
2023-07-26T05:47:39.569Z,100812.28
2023-07-26T05:50:11.980Z,100807.91
2023-07-26T05:52:45.294Z,100816.63
2023-07-26T05:55:13.883Z,100812.53
2023-07-26T05:57:46.020Z,100818.59
2023-07-26T06:00:19.006Z,100824.63
2023-07-26T06:02:47.280Z,100822.41
2023-07-26T06:05:18.557Z,100825.69
2023-07-26T06:07:55.893Z,100823.91
2023-07-26T06:10:23.806Z,100832.78
2023-07-26T06:12:52.048Z,100829.81
2023-07-26T06:15:20.017Z,100829.22
2023-07-26T06:17:48.261Z,100837.38
2023-07-26T06:20:16.267Z,100842.47
2023-07-26T06:22:44.490Z,100840.72
2023-07-26T06:25:13.979Z,100839.19
2023-07-26T06:27:41.895Z,100840.13
2023-07-26T06:30:14.747Z,100835.56
2023-07-26T06:32:42.817Z,100838.97
2023-07-26T06:35:10.996Z,100835.22
2023-07-26T06:37:39.372Z,100837.47
2023-07-26T06:40:08.439Z,100837.09
2023-07-26T06:42:37.924Z,100845.16
2023-07-26T06:45:06.512Z,100842.25
2023-07-26T06:47:34.635Z,100841.50
2023-07-26T06:50:02.618Z,100845.50
2023-07-26T06:52:43.351Z,100846.66
2023-07-26T06:55:11.424Z,100852.59
2023-07-26T06:57:40.901Z,100841.25
2023-07-26T07:00:13.904Z,100841.41
2023-07-26T07:02:42.036Z,100829.66
2023-07-26T07:05:10.505Z,100829.69
2023-07-26T07:07:38.583Z,100833.69
2023-07-26T07:10:07.881Z,100838.03
2023-07-26T07:12:35.774Z,100830.66
2023-07-26T07:15:05.608Z,100834.59
2023-07-26T07:17:33.710Z,100837.53
2023-07-26T07:20:01.756Z,100828.09
2023-07-26T07:22:30.751Z,100830.63
2023-07-26T07:24:59.157Z,100839.25
2023-07-26T07:27:28.167Z,100842.63
2023-07-26T07:29:56.497Z,100854.78
2023-07-26T07:32:25.978Z,100841.94
2023-07-26T07:34:54.768Z,100847.28
2023-07-26T07:37:24.356Z,100853.88
2023-07-26T07:39:52.236Z,100852.19
2023-07-26T07:42:20.426Z,100849.53
2023-07-26T07:44:48.257Z,100846.22
2023-07-26T07:47:17.528Z,100845.06
2023-07-26T07:49:48.211Z,100847.38
2023-07-26T07:52:16.215Z,100846.03
2023-07-26T07:54:44.169Z,100839.47
2023-07-26T07:57:12.374Z,100850.75
2023-07-26T07:59:40.293Z,100849.72
2023-07-26T08:02:08.333Z,100840.22
2023-07-26T08:04:39.047Z,100837.13
2023-07-26T08:07:08.914Z,100836.53
2023-07-26T08:09:37.150Z,100843.72
2023-07-26T08:12:05.799Z,100842.59
2023-07-26T08:14:33.874Z,100838.28
2023-07-26T08:17:02.341Z,100829.00
2023-07-26T08:19:30.839Z,100829.66
2023-07-26T08:21:58.866Z,100831.47
2023-07-26T08:24:29.604Z,100839.56
2023-07-26T08:26:58.026Z,100837.59
2023-07-26T08:29:25.975Z,100829.72
2023-07-26T08:31:54.284Z,100836.31
2023-07-26T08:34:22.412Z,100836.88
2023-07-26T08:36:50.377Z,100835.00
2023-07-26T08:41:52.242Z,100839.56
2023-07-26T08:44:21.160Z,100840.31
2023-07-26T08:46:50.187Z,100841.78
2023-07-26T08:49:19.034Z,100852.75
2023-07-26T08:51:47.586Z,100849.25
2023-07-26T08:54:16.866Z,100859.34
2023-07-26T08:56:45.129Z,100861.28
2023-07-26T08:59:14.431Z,100863.94
2023-07-26T09:01:59.810Z,100865.47
2023-07-26T09:04:31.971Z,100855.09
2023-07-26T09:07:02.755Z,100839.31
2023-07-26T09:09:31.696Z,100837.19
2023-07-26T09:11:59.965Z,100831.69
2023-07-26T09:14:29.778Z,100827.16
2023-07-26T09:16:58.613Z,100834.03
2023-07-26T09:19:30.987Z,100843.88
2023-07-26T09:22:00.326Z,100844.44
2023-07-26T09:24:32.420Z,100836.28
2023-07-26T09:27:05.490Z,100841.72
2023-07-26T09:29:35.978Z,100834.03
2023-07-26T09:32:05.343Z,100829.41
2023-07-26T09:34:33.679Z,100836.88
2023-07-26T09:37:02.084Z,100831.69
2023-07-26T09:39:33.932Z,100826.75
2023-07-26T09:42:07.247Z,100828.13
2023-07-26T09:44:37.256Z,100833.63
2023-07-26T09:47:05.506Z,100826.59
2023-07-26T09:49:34.285Z,100831.97
2023-07-26T09:54:36.287Z,100836.34
2023-07-26T09:57:05.663Z,100827.38
2023-07-26T09:59:39.151Z,100825.91
2023-07-26T10:02:11.761Z,100831.63
2023-07-26T10:04:49.425Z,100832.88
2023-07-26T10:07:19.082Z,100822.22
2023-07-26T10:09:48.593Z,100820.78
2023-07-26T10:12:17.748Z,100829.25
2023-07-26T10:14:49.709Z,100825.66
2023-07-26T10:17:20.971Z,100825.66
2023-07-26T10:19:51.026Z,100819.66
2023-07-26T10:22:19.264Z,100826.72
2023-07-26T10:24:47.762Z,100822.41
2023-07-26T10:27:15.961Z,100818.28
2023-07-26T10:29:47.060Z,100824.34
2023-07-26T10:32:15.067Z,100813.59
2023-07-26T10:34:43.892Z,100822.00
2023-07-26T10:37:16.796Z,100830.25
2023-07-26T10:39:45.459Z,100829.81
2023-07-26T10:42:31.500Z,100819.91
2023-07-26T10:45:04.634Z,100815.50
2023-07-26T10:47:32.908Z,100823.84
2023-07-26T10:50:08.199Z,100817.19
2023-07-26T10:52:37.351Z,100828.75
2023-07-26T10:55:23.893Z,100825.94
2023-07-26T10:57:52.167Z,100822.25
2023-07-26T11:00:35.704Z,100821.31
2023-07-26T11:03:04.743Z,100813.63
2023-07-26T11:05:33.505Z,100812.94
2023-07-26T11:08:03.236Z,100811.66
2023-07-26T11:10:32.787Z,100818.34
2023-07-26T11:13:14.863Z,100820.47
2023-07-26T11:16:12.848Z,100807.69
2023-07-26T11:18:41.542Z,100806.50
2023-07-26T11:21:15.287Z,100808.16
2023-07-26T11:23:43.450Z,100818.41
2023-07-26T11:26:11.405Z,100814.22
2023-07-26T11:28:39.639Z,100810.97
2023-07-26T11:31:09.131Z,100801.13
2023-07-26T11:33:38.239Z,100792.28
2023-07-26T11:36:08.760Z,100794.16
2023-07-26T11:38:36.794Z,100799.31
2023-07-26T11:41:05.702Z,100793.88
2023-07-26T11:43:34.162Z,100804.16
2023-07-26T11:46:02.242Z,100801.81
2023-07-26T11:48:34.675Z,100799.00
2023-07-26T11:51:04.902Z,100809.19
2023-07-26T11:53:44.113Z,100811.25
2023-07-26T11:56:15.567Z,100819.94
2023-07-26T11:58:45.104Z,100829.16
2023-07-26T12:01:16.027Z,100825.78
2023-07-26T12:03:45.682Z,100839.84
2023-07-26T12:06:13.816Z,100850.03
2023-07-26T12:08:43.064Z,100852.16
2023-07-26T12:11:11.147Z,100861.09
2023-07-26T12:13:39.286Z,100870.81
2023-07-26T12:16:10.527Z,100863.91
2023-07-26T12:18:52.786Z,100872.22
2023-07-26T12:21:26.586Z,100871.22
2023-07-26T12:23:55.636Z,100875.72
2023-07-26T12:26:24.755Z,100881.00
2023-07-26T12:28:54.656Z,100884.81
2023-07-26T12:31:24.551Z,100870.91
2023-07-26T12:34:02.357Z,100873.72
2023-07-26T12:36:32.609Z,100873.88
2023-07-26T12:39:00.934Z,100864.94
2023-07-26T12:41:29.465Z,100867.22
2023-07-26T12:43:58.701Z,100878.28
2023-07-26T12:46:26.638Z,100877.84
2023-07-26T12:48:57.183Z,100882.03
2023-07-26T12:51:27.408Z,100887.13
2023-07-26T12:53:56.521Z,100888.88
2023-07-26T12:56:25.952Z,100891.34
2023-07-26T12:59:06.001Z,100894.66
2023-07-26T13:01:35.755Z,100893.50
2023-07-26T13:04:04.731Z,100887.41
2023-07-26T13:06:34.294Z,100889.75
2023-07-26T13:09:02.582Z,100889.06
2023-07-26T13:11:30.940Z,100889.91
2023-07-26T13:13:59.416Z,100892.66
2023-07-26T13:16:31.930Z,100884.53
2023-07-26T13:19:02.114Z,100891.25
2023-07-26T13:21:30.955Z,100878.69
2023-07-26T13:24:00.380Z,100880.91
2023-07-26T13:26:30.324Z,100887.72
2023-07-26T13:28:58.683Z,100887.00
2023-07-26T13:31:26.734Z,100886.13
2023-07-26T13:33:54.836Z,100878.97
2023-07-26T13:36:28.925Z,100879.47
2023-07-26T13:38:56.877Z,100876.53
2023-07-26T13:41:26.204Z,100869.88
2023-07-26T13:43:54.098Z,100887.06
2023-07-26T13:46:32.932Z,100882.25
2023-07-26T13:49:03.072Z,100877.66
2023-07-26T13:51:31.097Z,100875.66
2023-07-26T13:53:59.162Z,100874.84
2023-07-26T13:56:29.753Z,100878.47
2023-07-26T13:58:58.004Z,100873.72
2023-07-26T14:01:28.264Z,100881.16
2023-07-26T14:03:56.620Z,100880.97
2023-07-26T14:06:26.710Z,100889.41
2023-07-26T14:08:54.736Z,100887.66
2023-07-26T14:11:22.783Z,100886.75
2023-07-26T14:13:52.664Z,100886.75
2023-07-26T14:16:23.414Z,100886.97
2023-07-26T14:18:52.291Z,100882.25
2023-07-26T14:21:20.320Z,100890.63
2023-07-26T14:23:49.006Z,100892.44
2023-07-26T14:26:17.290Z,100897.94
2023-07-26T14:28:45.346Z,100895.19
2023-07-26T14:31:15.029Z,100889.72
2023-07-26T14:33:43.104Z,100903.53
2023-07-26T14:36:11.332Z,100904.19
2023-07-26T14:38:39.394Z,100904.19
2023-07-26T14:41:08.395Z,100908.63
2023-07-26T14:43:36.396Z,100904.72
2023-07-26T14:46:04.742Z,100899.47
2023-07-26T14:48:34.258Z,100909.47
2023-07-26T14:51:02.270Z,100911.22
2023-07-26T14:53:30.874Z,100900.19
2023-07-26T14:55:58.890Z,100912.34
2023-07-26T14:58:26.879Z,100907.19
2023-07-26T15:00:54.922Z,100914.38
2023-07-26T15:03:23.023Z,100904.28
2023-07-26T15:05:52.709Z,100916.94
2023-07-26T15:08:21.043Z,100919.56
2023-07-26T15:10:49.294Z,100919.56
2023-07-26T15:13:17.150Z,100913.41
2023-07-26T15:15:45.011Z,100916.84
2023-07-26T15:18:13.042Z,100912.50
2023-07-26T15:20:42.814Z,100924.72
2023-07-26T15:23:13.326Z,100930.59
2023-07-26T15:25:41.630Z,100930.41
2023-07-26T15:28:10.253Z,100937.28
2023-07-26T15:30:39.048Z,100929.16
2023-07-26T15:33:09.303Z,100937.28
2023-07-26T15:35:39.300Z,100939.03
2023-07-26T15:38:09.456Z,100940.59
2023-07-26T15:48:12.925Z,100944.44
2023-07-26T15:50:54.033Z,100931.44
2023-07-26T15:53:23.311Z,100928.34
2023-07-26T15:55:52.791Z,100935.06
2023-07-26T15:58:27.735Z,100929.25
2023-07-26T16:00:57.240Z,100928.13
2023-07-26T16:11:00.122Z,100916.78
2023-07-26T16:13:29.457Z,100906.22
2023-07-26T16:18:30.711Z,100905.63
2023-07-26T16:23:31.495Z,100909.81
2023-07-26T16:26:01.082Z,100903.56
2023-07-26T16:28:29.361Z,100898.41
2023-07-26T16:30:57.314Z,100915.56
2023-07-26T16:33:25.646Z,100906.69
2023-07-26T16:35:55.731Z,100903.16
2023-07-26T16:38:23.966Z,100899.06
2023-07-26T16:40:52.415Z,100897.97
2023-07-26T16:43:21.969Z,100902.19
2023-07-26T16:45:50.709Z,100899.28
2023-07-26T16:48:18.741Z,100908.00
2023-07-26T16:50:46.783Z,100907.91
2023-07-26T16:53:14.769Z,100905.88
2023-07-26T16:55:42.610Z,100912.44
2023-07-26T16:58:10.788Z,100911.47
2023-07-26T17:00:42.965Z,100917.56
2023-07-26T17:03:11.528Z,100917.41
2023-07-26T17:05:39.599Z,100910.91
2023-07-26T17:08:07.828Z,100907.19
2023-07-26T17:10:37.750Z,100915.91
2023-07-26T17:13:05.833Z,100900.59
2023-07-26T17:15:33.825Z,100906.31
2023-07-26T17:18:03.205Z,100906.69
2023-07-26T17:20:31.833Z,100908.63
2023-07-26T17:22:59.735Z,100906.84
2023-07-26T17:25:27.848Z,100899.88
2023-07-26T17:27:55.766Z,100904.69
2023-07-26T17:30:23.665Z,100898.56
2023-07-26T17:32:52.453Z,100901.72
2023-07-26T17:35:21.816Z,100900.03
2023-07-26T17:37:50.153Z,100898.94
2023-07-26T17:40:18.893Z,100903.66
2023-07-26T17:42:47.421Z,100904.22
2023-07-26T17:45:15.526Z,100912.66
2023-07-26T17:50:12.696Z,100913.34
2023-07-26T17:52:42.196Z,100916.59
2023-07-26T17:55:10.445Z,100917.19
2023-07-26T17:57:38.479Z,100918.50
2023-07-26T18:00:07.973Z,100917.19
2023-07-26T18:02:36.229Z,100924.47
2023-07-26T18:05:04.363Z,100914.59
2023-07-26T18:07:32.492Z,100912.59
2023-07-26T18:10:01.758Z,100918.00
2023-07-26T18:12:30.382Z,100918.00
2023-07-26T18:14:58.980Z,100920.50
2023-07-26T18:17:30.659Z,100922.00
2023-07-26T18:19:58.886Z,100921.69
2023-07-26T18:22:26.846Z,100928.69
2023-07-26T18:24:54.911Z,100932.69
2023-07-26T18:27:24.437Z,100927.13
2023-07-26T18:29:52.543Z,100935.41
2023-07-26T18:32:20.418Z,100927.03
2023-07-26T18:34:48.368Z,100933.31
2023-07-26T18:37:16.282Z,100930.38
2023-07-26T18:39:44.303Z,100934.38
2023-07-26T18:42:12.574Z,100929.84
2023-07-26T18:44:42.091Z,100928.16
2023-07-26T18:47:10.620Z,100934.84
2023-07-26T18:49:40.950Z,100941.53
2023-07-26T18:52:10.175Z,100932.69
2023-07-26T18:54:38.170Z,100938.53
2023-07-26T18:57:06.827Z,100938.19
2023-07-26T18:59:35.582Z,100947.47
2023-07-26T19:02:05.322Z,100947.25
2023-07-26T19:04:33.707Z,100944.09
2023-07-26T19:07:02.196Z,100949.66
2023-07-26T19:09:31.028Z,100951.09
2023-07-26T19:12:00.551Z,100964.03
2023-07-26T19:14:29.728Z,100962.16
2023-07-26T19:16:57.650Z,100967.56
2023-07-26T19:19:27.061Z,100972.41
2023-07-26T19:21:55.041Z,100974.22
2023-07-26T19:24:24.057Z,100974.94
2023-07-26T19:26:52.140Z,100970.97
2023-07-26T19:29:20.233Z,100980.03
2023-07-26T19:31:48.149Z,100987.81
2023-07-26T19:34:16.137Z,100982.00
2023-07-26T19:36:45.594Z,100988.84
2023-07-26T19:39:13.529Z,100984.00
2023-07-26T19:41:42.245Z,100994.34
2023-07-26T19:44:10.159Z,100989.66
2023-07-26T19:46:38.088Z,100989.19
2023-07-26T19:49:06.130Z,100991.91
2023-07-26T19:51:34.056Z,100994.00
2023-07-26T19:54:03.325Z,100998.97
2023-07-26T19:56:31.458Z,101002.94
2023-07-26T19:58:59.308Z,100996.06
2023-07-26T20:01:30.020Z,100989.59
2023-07-26T20:03:58.054Z,100982.13
2023-07-26T20:06:26.041Z,100993.06
2023-07-26T20:08:53.918Z,100987.91
2023-07-26T20:11:23.329Z,100986.19
2023-07-26T20:13:51.444Z,100984.94
2023-07-26T20:16:19.542Z,100984.41
2023-07-26T20:18:47.710Z,100984.06
2023-07-26T20:21:15.771Z,100977.28
2023-07-26T20:23:43.784Z,100992.06
2023-07-26T20:26:11.997Z,100992.88
2023-07-26T20:28:41.581Z,100999.13
2023-07-26T20:31:09.538Z,100996.97
2023-07-26T20:33:37.839Z,100999.81
2023-07-26T20:36:06.322Z,101001.06
2023-07-26T20:38:34.238Z,100998.63
2023-07-26T20:41:02.169Z,100996.91
2023-07-26T20:43:30.101Z,100991.44
2023-07-26T20:45:59.387Z,100989.06
2023-07-26T20:48:27.714Z,100982.94
2023-07-26T20:50:56.332Z,100994.28
2023-07-26T20:53:24.762Z,100988.00
2023-07-26T20:55:53.052Z,100985.00
2023-07-26T20:58:20.951Z,100979.47
2023-07-26T21:00:52.080Z,100990.69
2023-07-26T21:03:21.767Z,100985.41
2023-07-26T21:05:50.049Z,100978.19
2023-07-26T21:08:18.274Z,100981.59
2023-07-26T21:10:46.740Z,100979.34
2023-07-26T21:13:14.946Z,100970.00
2023-07-26T21:15:43.665Z,100972.47
2023-07-26T21:18:11.679Z,100974.63
2023-07-26T21:20:41.505Z,100977.16
2023-07-26T21:23:09.772Z,100973.25
2023-07-26T21:25:37.874Z,100971.41
2023-07-26T21:28:06.114Z,100974.25
2023-07-26T21:30:34.130Z,100976.38
2023-07-26T21:33:02.397Z,100971.84
2023-07-26T21:35:30.391Z,100967.84
2023-07-26T21:37:59.768Z,100974.63
2023-07-26T21:40:27.910Z,100973.03
2023-07-26T21:42:55.841Z,100984.41
2023-07-26T21:45:26.090Z,100982.94
2023-07-26T21:47:54.127Z,100988.28
2023-07-26T21:50:22.253Z,100991.56
2023-07-26T21:52:50.516Z,100991.09
2023-07-26T21:55:19.915Z,100991.22
2023-07-26T21:57:47.788Z,100984.00
2023-07-26T22:00:15.995Z,100991.28
2023-07-26T22:02:44.017Z,100984.56
2023-07-26T22:05:12.373Z,100982.53
2023-07-26T22:07:40.382Z,100978.53
2023-07-26T22:10:09.425Z,100975.03
2023-07-26T22:12:39.462Z,100967.31
2023-07-26T22:15:09.061Z,100972.66
2023-07-26T22:17:37.015Z,100972.44
2023-07-26T22:20:05.526Z,100964.84
2023-07-26T22:22:33.545Z,100964.88
2023-07-26T22:25:01.733Z,100969.44
2023-07-26T22:27:28.659Z,100961.09
2023-07-26T22:29:58.029Z,100957.69
2023-07-26T22:32:26.041Z,100962.84
2023-07-26T22:34:53.966Z,100953.41
2023-07-26T22:37:21.897Z,100957.59
2023-07-26T22:39:49.957Z,100954.91
2023-07-26T22:42:17.894Z,100945.34
2023-07-26T22:44:45.928Z,100944.94
2023-07-26T22:47:15.420Z,100945.56
2023-07-26T22:49:54.236Z,100942.50
2023-07-26T22:52:22.201Z,100937.97
2023-07-26T22:54:50.573Z,100935.03
2023-07-26T22:57:18.777Z,100933.72
2023-07-26T22:59:48.100Z,100934.56
2023-07-26T23:02:19.329Z,100933.59
2023-07-26T23:04:47.429Z,100933.13
2023-07-26T23:07:15.659Z,100930.56
2023-07-26T23:09:43.616Z,100930.06
2023-07-26T23:12:13.805Z,100935.44
2023-07-26T23:14:41.717Z,100935.81
2023-07-26T23:17:09.818Z,100930.06
2023-07-26T23:19:39.036Z,100932.63
2023-07-26T23:22:08.023Z,100926.00
2023-07-26T23:24:36.171Z,100927.44
2023-07-26T23:27:04.329Z,100921.72
2023-07-26T23:29:32.429Z,100922.00
2023-07-26T23:32:00.337Z,100919.75
2023-07-26T23:34:28.469Z,100917.22
2023-07-26T23:36:57.768Z,100913.78
2023-07-26T23:39:26.079Z,100910.59
2023-07-26T23:41:54.169Z,100909.72
2023-07-26T23:44:22.129Z,100907.69
2023-07-26T23:46:50.132Z,100902.03
2023-07-26T23:49:18.099Z,100908.88
2023-07-26T23:51:46.267Z,100898.97
2023-07-26T23:54:15.633Z,100905.22
2023-07-26T23:56:43.556Z,100897.16
2023-07-26T23:59:11.648Z,100902.91
